Time;durP1;ratioP1;P1;durP2;ratioP2;P2;SDS_P1;SDS_P2;PMS_P1;PMS_P2;Temp;Humidity;BMP_temperature;BMP_pressure;BME280_temperature;BME280_humidity;BME280_pressure;Samples;Min_cycle;Max_cycle;Signal;HPM_P1;HPM_P2
2022/01/19 00:01:53;;;;;;;;;;;3.00;99.90;;;;;;4986407;28;20052;-69
2022/01/19 00:04:20;;;;;;;;;;;3.00;99.90;;;;;;4985807;28;20067;-69
2022/01/19 00:06:47;;;;;;;;;;;3.00;99.90;;;;;;4986236;28;20060;-68
2022/01/19 00:09:14;;;;;;;;;;;3.00;99.90;;;;;;4984318;28;20076;-69
2022/01/19 00:11:41;;;;;;;;;;;3.00;99.90;;;;;;4985605;28;20068;-70
2022/01/19 00:14:08;;;;;;;;;;;3.00;99.90;;;;;;4985874;28;21141;-69
2022/01/19 00:16:37;;;;;;;;;;;2.90;99.90;;;;;;4986194;28;20125;-69
2022/01/19 00:19:04;;;;;;;;;;;2.90;99.90;;;;;;4984417;28;20080;-68
2022/01/19 00:21:33;;;;;;;;;;;2.90;99.90;;;;;;4985691;28;20076;-68
2022/01/19 00:24:00;;;;;;;;;;;2.80;99.90;;;;;;4985996;28;20327;-69
2022/01/19 00:26:27;;;;;;;;;;;2.80;99.90;;;;;;4985591;28;20051;-69
2022/01/19 00:28:55;;;;;;;;;;;2.70;99.90;;;;;;4984839;28;20148;-69
2022/01/19 00:31:22;;;;;;;;;;;2.70;99.90;;;;;;4985837;28;20067;-69
2022/01/19 00:33:52;;;;;;;;;;;2.60;99.90;;;;;;4985780;28;20099;-69
2022/01/19 00:36:19;;;;;;;;;;;2.60;99.90;;;;;;4985874;28;21251;-69
2022/01/19 00:38:46;;;;;;;;;;;2.60;99.90;;;;;;4985122;28;21115;-68
2022/01/19 00:41:13;;;;;;;;;;;2.60;99.90;;;;;;4986359;28;20060;-70
2022/01/19 00:43:40;;;;;;;;;;;2.60;99.90;;;;;;4989096;28;20088;-69
2022/01/19 00:46:08;;;;;;;;;;;2.50;99.90;;;;;;4989379;28;20161;-70
2022/01/19 00:48:36;;;;;;;;;;;2.50;99.90;;;;;;4990056;28;21101;-68
2022/01/19 00:51:05;;;;;;;;;;;2.50;99.90;;;;;;4987495;28;21045;-69
2022/01/19 00:53:32;;;;;;;;;;;2.40;99.90;;;;;;4988950;28;20080;-70
2022/01/19 00:55:59;;;;;;;;;;;2.30;99.90;;;;;;4988837;28;20052;-69
2022/01/19 00:58:27;;;;;;;;;;;2.30;99.90;;;;;;4989437;28;20066;-69
2022/01/19 01:00:54;;;;;;;;;;;2.20;99.90;;;;;;4987533;28;20114;-70
2022/01/19 01:03:21;;;;;;;;;;;2.20;99.90;;;;;;4988830;28;21241;-70
2022/01/19 01:05:48;;;;;;;;;;;2.10;99.90;;;;;;4988487;28;21170;-70
2022/01/19 01:08:17;;;;;;;;;;;2.00;99.90;;;;;;4986801;28;20104;-69
2022/01/19 01:10:45;;;;;;;;;;;1.90;99.90;;;;;;4983685;28;20068;-69
2022/01/19 01:13:22;;;;;;;;;;;1.90;99.90;;;;;;4989102;28;20112;-70
2022/01/19 01:16:00;;;;;;;;;;;1.80;99.90;;;;;;4989238;28;20239;-71
2022/01/19 01:18:28;;;;;;;;;;;1.70;99.90;;;;;;4989026;28;20046;-70
2022/01/19 01:21:00;;;;;;;;;;;1.70;99.90;;;;;;4988068;28;20066;-70
2022/01/19 01:23:31;;;;;;;;;;;1.60;99.90;;;;;;4988713;28;20058;-70
2022/01/19 01:25:58;;;;;;;;;;;1.60;99.90;;;;;;4988454;28;20061;-69
2022/01/19 01:28:26;;;;;;;;;;;1.60;99.90;;;;;;4988910;28;20060;-69
2022/01/19 01:30:53;;;;;;;;;;;1.60;99.90;;;;;;4986357;28;20232;-70
2022/01/19 01:33:20;;;;;;;;;;;1.70;99.90;;;;;;4989134;28;20057;-69
2022/01/19 01:35:48;;;;;;;;;;;1.70;99.90;;;;;;4988519;28;20060;-69
2022/01/19 01:38:15;;;;;;;;;;;1.70;99.90;;;;;;4988593;28;20059;-70
2022/01/19 01:40:44;;;;;;;;;;;1.80;99.90;;;;;;4986604;28;20065;-70
2022/01/19 01:43:11;;;;;;;;;;;1.90;99.90;;;;;;4988705;28;20145;-69
2022/01/19 01:45:43;;;;;;;;;;;1.90;99.90;;;;;;4988776;28;20060;-70
2022/01/19 01:48:14;;;;;;;;;;;1.80;99.90;;;;;;4988224;28;20058;-70
2022/01/19 01:53:39;;;;;;;;;;;1.80;99.90;;;;;;4986661;28;20144;-69
2022/01/19 01:56:09;;;;;;;;;;;1.70;99.90;;;;;;4988088;28;20239;-70
2022/01/19 01:58:37;;;;;;;;;;;1.60;99.90;;;;;;4988282;28;20059;-70
2022/01/19 02:01:30;;;;;;;;;;;1.60;99.90;;;;;;4981397;28;20060;-70
2022/01/19 02:04:00;;;;;;;;;;;1.50;99.90;;;;;;4987539;28;20057;-69
2022/01/19 02:06:39;;;;;;;;;;;1.50;99.90;;;;;;4987761;28;20075;-70
2022/01/19 02:09:20;;;;;;;;;;;1.50;99.90;;;;;;4987144;28;20070;-69
2022/01/19 02:23:02;;;;;;;;;;;1.30;99.90;;;;;;4987145;28;20066;-70
2022/01/19 02:25:35;;;;;;;;;;;1.30;99.90;;;;;;4987449;28;20213;-69
2022/01/19 02:36:37;;;;;;;;;;;1.10;99.90;;;;;;4982065;28;20219;-70
2022/01/19 02:41:49;;;;;;;;;;;1.00;99.90;;;;;;4986605;28;21053;-69
2022/01/19 02:44:30;;;;;;;;;;;1.00;99.90;;;;;;4986111;28;20108;-69
2022/01/19 02:49:38;;;;;;;;;;;0.90;99.90;;;;;;4984300;28;21110;-70
2022/01/19 02:52:07;;;;;;;;;;;0.90;99.90;;;;;;4986741;28;20153;-71
2022/01/19 02:54:34;;;;;;;;;;;0.80;99.90;;;;;;4986495;28;21095;-70
2022/01/19 02:57:02;;;;;;;;;;;0.80;99.90;;;;;;4987032;28;20067;-71
2022/01/19 02:59:40;;;;;;;;;;;0.80;99.90;;;;;;4985791;28;20051;-70
2022/01/19 03:10:22;;;;;;;;;;;0.70;99.90;;;;;;4986017;28;20127;-70
2022/01/19 03:12:50;;;;;;;;;;;0.60;99.90;;;;;;4986459;28;20067;-70
2022/01/19 03:15:18;;;;;;;;;;;0.50;99.90;;;;;;4987193;28;20052;-69
2022/01/19 03:17:45;;;;;;;;;;;0.50;99.90;;;;;;4986951;28;20219;-70
2022/01/19 03:20:12;;;;;;;;;;;0.50;99.90;;;;;;4986327;28;20075;-70
2022/01/19 03:22:49;;;;;;;;;;;0.60;99.90;;;;;;4986613;28;20052;-68
2022/01/19 03:25:16;;;;;;;;;;;0.70;99.90;;;;;;4986403;28;20196;-69
2022/01/19 03:27:47;;;;;;;;;;;0.70;99.90;;;;;;4986756;28;21186;-70
2022/01/19 03:30:14;;;;;;;;;;;0.70;99.90;;;;;;4986105;28;21123;-69
2022/01/19 03:32:42;;;;;;;;;;;0.70;99.90;;;;;;4986549;28;20087;-69
2022/01/19 03:35:09;;;;;;;;;;;0.70;99.90;;;;;;4986963;28;20570;-71
2022/01/19 03:37:36;;;;;;;;;;;0.70;99.90;;;;;;4986479;28;20179;-70
2022/01/19 03:40:06;;;;;;;;;;;0.70;99.90;;;;;;4985070;28;20141;-70
2022/01/19 03:42:34;;;;;;;;;;;0.70;99.90;;;;;;4985789;28;20078;-70
2022/01/19 03:45:01;;;;;;;;;;;0.60;99.90;;;;;;4987060;28;20068;-69
2022/01/19 03:47:31;;;;;;;;;;;0.60;99.90;;;;;;4986830;28;20271;-70
2022/01/19 03:49:59;;;;;;;;;;;0.60;99.90;;;;;;4985471;28;20099;-69
2022/01/19 03:52:26;;;;;;;;;;;0.70;99.90;;;;;;4985820;28;20083;-70
2022/01/19 03:54:54;;;;;;;;;;;0.70;99.90;;;;;;4985555;28;20072;-70
2022/01/19 03:57:22;;;;;;;;;;;0.70;99.90;;;;;;4986276;28;20080;-70
2022/01/19 03:59:50;;;;;;;;;;;0.80;99.90;;;;;;4985181;28;20272;-69
2022/01/19 04:02:19;;;;;;;;;;;0.90;99.90;;;;;;4985948;28;20053;-70
2022/01/19 04:04:50;;;;;;;;;;;0.90;99.90;;;;;;4986240;28;20069;-67
2022/01/19 04:07:17;;;;;;;;;;;1.00;99.90;;;;;;4986696;28;20052;-70
2022/01/19 04:09:47;;;;;;;;;;;1.00;99.90;;;;;;4985717;28;20056;-70
2022/01/19 04:12:19;;;;;;;;;;;1.10;99.90;;;;;;4986065;28;20059;-69
2022/01/19 04:14:48;;;;;;;;;;;1.10;99.90;;;;;;4986519;28;21019;-69
2022/01/19 04:17:15;;;;;;;;;;;1.10;99.90;;;;;;4989242;28;21188;-70
2022/01/19 04:19:44;;;;;;;;;;;1.20;99.90;;;;;;4989647;28;21132;-69
2022/01/19 04:22:32;;;;;;;;;;;1.20;99.90;;;;;;5009316;28;20162;-69
2022/01/19 04:25:04;;;;;;;;;;;1.30;99.90;;;;;;4990303;28;20097;-69
2022/01/19 04:27:33;;;;;;;;;;;1.40;99.90;;;;;;4985729;28;20170;-70
2022/01/19 04:30:08;;;;;;;;;;;1.40;99.90;;;;;;4983648;28;20051;-70
2022/01/19 04:32:45;;;;;;;;;;;1.50;99.90;;;;;;4991366;28;20426;-70
2022/01/19 04:35:15;;;;;;;;;;;1.50;99.90;;;;;;4990703;28;20067;-70
2022/01/19 04:38:09;;;;;;;;;;;1.60;99.90;;;;;;4990066;28;20067;-69
2022/01/19 04:46:32;;;;;;;;;;;1.60;99.90;;;;;;4989694;28;21122;-69
2022/01/19 04:49:13;;;;;;;;;;;1.60;99.90;;;;;;4989267;28;20060;-71
2022/01/19 05:03:22;;;;;;;;;;;1.70;99.90;;;;;;5009424;28;21157;-69
2022/01/19 05:06:01;;;;;;;;;;;1.70;99.90;;;;;;4989433;28;20092;-69
2022/01/19 05:14:24;;;;;;;;;;;1.90;99.90;;;;;;4889214;29;20066;-69
2022/01/19 05:16:51;;;;;;;;;;;1.90;99.90;;;;;;4959615;28;20074;-67
2022/01/19 05:19:21;;;;;;;;;;;1.90;99.90;;;;;;4988889;28;20201;-69
2022/01/19 05:21:49;;;;;;;;;;;1.90;99.90;;;;;;4988001;28;21139;-69
2022/01/19 05:24:16;;;;;;;;;;;1.90;99.90;;;;;;5008911;28;20052;-70
2022/01/19 05:27:06;;;;;;;;;;;1.90;99.90;;;;;;5000621;28;20078;-69
2022/01/19 05:29:36;;;;;;;;;;;1.90;99.90;;;;;;4988212;28;20059;-69
2022/01/19 05:32:04;;;;;;;;;;;1.90;99.90;;;;;;4988311;28;20067;-69
2022/01/19 05:34:33;;;;;;;;;;;1.90;99.90;;;;;;4989048;28;20263;-69
2022/01/19 05:37:09;;;;;;;;;;;2.00;99.90;;;;;;4989059;28;20060;-70
2022/01/19 05:39:55;;;;;;;;;;;2.00;99.90;;;;;;5007667;28;20075;-70
2022/01/19 05:42:28;;;;;;;;;;;2.00;99.90;;;;;;4988188;28;20060;-70
2022/01/19 05:44:55;;;;;;;;;;;2.10;99.90;;;;;;4989018;28;20066;-68
2022/01/19 05:47:23;;;;;;;;;;;2.10;99.90;;;;;;4988662;28;20088;-68
2022/01/19 05:49:51;;;;;;;;;;;2.10;99.90;;;;;;4987259;28;20190;-71
2022/01/19 05:52:19;;;;;;;;;;;2.10;99.90;;;;;;4988099;28;21178;-69
2022/01/19 05:54:46;;;;;;;;;;;2.10;99.90;;;;;;4988773;28;20051;-70
2022/01/19 05:57:13;;;;;;;;;;;2.20;99.90;;;;;;4987889;28;20211;-70
2022/01/19 05:59:43;;;;;;;;;;;2.10;99.90;;;;;;4987417;28;20058;-70
2022/01/19 06:02:11;;;;;;;;;;;2.10;99.90;;;;;;4978411;28;20085;-69
2022/01/19 06:04:38;;;;;;;;;;;2.20;99.90;;;;;;4984880;28;20091;-69
2022/01/19 06:07:18;;;;;;;;;;;2.20;99.90;;;;;;4978874;28;20060;-68
2022/01/19 06:10:05;;;;;;;;;;;2.20;99.90;;;;;;4967231;28;20068;-69
2022/01/19 06:12:38;;;;;;;;;;;2.20;99.90;;;;;;4985936;28;20051;-69
2022/01/19 06:15:07;;;;;;;;;;;2.20;99.90;;;;;;4987671;28;20150;-69
2022/01/19 06:17:34;;;;;;;;;;;2.20;99.90;;;;;;4987304;28;20061;-69
2022/01/19 06:20:03;;;;;;;;;;;2.20;99.90;;;;;;4977172;28;20170;-70
2022/01/19 06:22:32;;;;;;;;;;;2.30;99.90;;;;;;4968493;28;21151;-70
2022/01/19 06:25:00;;;;;;;;;;;2.30;99.90;;;;;;4968896;28;20051;-70
2022/01/19 06:27:28;;;;;;;;;;;2.30;99.90;;;;;;4967743;28;20332;-70
2022/01/19 06:29:55;;;;;;;;;;;2.30;99.90;;;;;;4966974;28;20527;-70
2022/01/19 06:32:22;;;;;;;;;;;2.30;99.90;;;;;;4966938;28;20060;-70
2022/01/19 06:34:50;;;;;;;;;;;2.30;99.90;;;;;;4967273;28;20315;-70
2022/01/19 06:37:23;;;;;;;;;;;2.30;99.90;;;;;;4998176;28;21160;-70
2022/01/19 06:40:13;;;;;;;;;;;2.30;99.90;;;;;;5003778;28;20059;-68
2022/01/19 06:42:41;;;;;;;;;;;2.30;99.90;;;;;;4988095;28;20271;-69
2022/01/19 06:45:09;;;;;;;;;;;2.40;99.90;;;;;;4986812;28;20226;-68
2022/01/19 06:47:38;;;;;;;;;;;2.30;99.90;;;;;;4987661;28;20077;-70
2022/01/19 06:50:06;;;;;;;;;;;2.40;99.90;;;;;;4986625;28;21138;-69
2022/01/19 06:52:36;;;;;;;;;;;2.40;99.90;;;;;;4987989;28;20687;-70
2022/01/19 06:55:04;;;;;;;;;;;2.40;99.90;;;;;;4987029;28;20060;-70
2022/01/19 06:57:32;;;;;;;;;;;2.50;99.90;;;;;;4986411;28;20141;-69
2022/01/19 07:00:18;;;;;;;;;;;2.50;99.90;;;;;;5006378;28;20091;-69
2022/01/19 07:03:18;;;;;;;;;;;2.60;99.90;;;;;;4981216;28;20067;-70
2022/01/19 07:05:47;;;;;;;;;;;2.60;99.90;;;;;;4983788;28;20068;-69
2022/01/19 07:08:44;;;;;;;;;;;2.60;99.90;;;;;;4977256;28;20092;-69
2022/01/19 07:11:11;;;;;;;;;;;2.60;99.90;;;;;;4975298;28;20076;-69
2022/01/19 07:13:40;;;;;;;;;;;2.60;99.90;;;;;;4978448;28;21339;-71
2022/01/19 07:16:07;;;;;;;;;;;2.70;99.90;;;;;;4968856;28;20069;-69
2022/01/19 07:18:35;;;;;;;;;;;2.70;99.90;;;;;;4968959;28;20052;-69
2022/01/19 07:21:03;;;;;;;;;;;2.70;99.90;;;;;;4967828;28;21074;-69
2022/01/19 07:23:47;;;;;;;;;;;2.70;99.90;;;;;;4973921;28;20069;-69
2022/01/19 07:26:14;;;;;;;;;;;2.80;99.90;;;;;;4982698;28;21144;-68
2022/01/19 07:28:43;;;;;;;;;;;2.80;99.90;;;;;;4976465;28;21119;-68
2022/01/19 07:31:10;;;;;;;;;;;2.80;99.90;;;;;;4976049;28;20078;-69
2022/01/19 07:33:38;;;;;;;;;;;2.80;99.90;;;;;;4981680;28;21236;-69
2022/01/19 07:36:05;;;;;;;;;;;2.90;99.90;;;;;;4975817;28;20068;-68
2022/01/19 07:38:33;;;;;;;;;;;2.90;99.90;;;;;;4969690;28;20083;-69
2022/01/19 07:41:00;;;;;;;;;;;2.90;99.90;;;;;;4994246;23;20246;-71
2022/01/19 07:43:30;;;;;;;;;;;2.90;99.90;;;;;;5007314;28;21201;-71
2022/01/19 07:46:31;;;;;;;;;;;2.90;99.90;;;;;;4992944;28;20069;-71
2022/01/19 07:49:28;;;;;;;;;;;2.90;99.90;;;;;;5020600;28;20050;-71
2022/01/19 07:52:15;;;;;;;;;;;2.80;99.90;;;;;;5050279;28;20219;-70
2022/01/19 07:55:02;;;;;;;;;;;2.90;99.90;;;;;;5033061;28;21055;-71
2022/01/19 07:57:51;;;;;;;;;;;2.90;99.90;;;;;;5032870;28;20161;-71
2022/01/19 08:00:34;;;;;;;;;;;2.90;99.90;;;;;;5014053;28;20069;-71
2022/01/19 08:03:22;;;;;;;;;;;2.90;99.90;;;;;;5039288;28;20205;-71
2022/01/19 08:06:04;;;;;;;;;;;2.90;99.90;;;;;;5012824;28;20085;-72
2022/01/19 08:08:35;;;;;;;;;;;2.90;99.90;;;;;;5012771;28;20267;-72
2022/01/19 08:11:02;;;;;;;;;;;2.90;99.90;;;;;;5006017;28;21152;-71
2022/01/19 08:13:32;;;;;;;;;;;3.00;99.90;;;;;;4992888;28;20078;-71
2022/01/19 08:16:01;;;;;;;;;;;3.00;99.90;;;;;;4993024;28;20067;-68
2022/01/19 08:18:31;;;;;;;;;;;3.00;99.90;;;;;;4995888;28;20083;-71
2022/01/19 08:20:58;;;;;;;;;;;3.10;99.90;;;;;;4991800;28;20066;-69
2022/01/19 08:23:30;;;;;;;;;;;3.10;99.90;;;;;;4993336;28;20065;-71
2022/01/19 08:25:59;;;;;;;;;;;3.20;99.90;;;;;;5009174;28;20234;-70
2022/01/19 08:28:27;;;;;;;;;;;3.20;99.90;;;;;;4992808;28;20090;-73
2022/01/19 08:30:56;;;;;;;;;;;3.20;99.90;;;;;;4990173;28;21502;-71
2022/01/19 08:33:53;;;;;;;;;;;3.20;99.90;;;;;;5008768;28;20059;-71
2022/01/19 08:36:28;;;;;;;;;;;3.30;99.90;;;;;;5000350;28;20060;-72
2022/01/19 08:39:18;;;;;;;;;;;3.30;99.90;;;;;;5020293;28;20281;-72
2022/01/19 08:41:47;;;;;;;;;;;3.30;99.90;;;;;;5017290;28;21132;-72
2022/01/19 08:44:15;;;;;;;;;;;3.30;99.90;;;;;;5009355;28;20088;-70
2022/01/19 08:46:46;;;;;;;;;;;3.40;99.90;;;;;;5017477;28;21031;-71
2022/01/19 08:49:36;;;;;;;;;;;3.40;99.90;;;;;;5034573;28;20239;-73
2022/01/19 08:52:22;;;;;;;;;;;3.50;99.90;;;;;;5029128;28;21168;-71
2022/01/19 08:55:04;;;;;;;;;;;3.50;99.90;;;;;;5009421;28;20050;-73
2022/01/19 08:57:31;;;;;;;;;;;3.60;99.90;;;;;;5016399;28;20068;-71
2022/01/19 08:59:58;;;;;;;;;;;3.60;99.90;;;;;;5014884;28;20084;-71
2022/01/19 09:02:25;;;;;;;;;;;3.60;99.90;;;;;;5018721;28;20197;-71
2022/01/19 09:04:54;;;;;;;;;;;3.70;99.90;;;;;;5009660;28;20059;-71
2022/01/19 09:07:22;;;;;;;;;;;3.70;99.90;;;;;;5009271;28;20073;-72
2022/01/19 09:09:49;;;;;;;;;;;3.80;99.90;;;;;;5008383;28;20058;-71
2022/01/19 09:12:16;;;;;;;;;;;3.80;99.90;;;;;;4992553;28;20074;-71
2022/01/19 09:14:43;;;;;;;;;;;3.90;99.90;;;;;;4989056;28;21062;-71
2022/01/19 09:17:10;;;;;;;;;;;3.80;99.90;;;;;;4989538;28;21101;-71
2022/01/19 09:19:39;;;;;;;;;;;3.80;99.90;;;;;;4988468;28;21062;-71
2022/01/19 09:22:09;;;;;;;;;;;3.80;99.90;;;;;;4989262;28;21084;-73
2022/01/19 09:24:36;;;;;;;;;;;3.90;99.90;;;;;;4989334;28;21123;-71
2022/01/19 09:27:03;;;;;;;;;;;3.90;99.90;;;;;;4988012;28;21080;-71
2022/01/19 09:29:30;;;;;;;;;;;3.90;99.90;;;;;;4998075;28;21059;-69
2022/01/19 09:32:00;;;;;;;;;;;3.90;99.90;;;;;;5015891;28;21077;-71
2022/01/19 09:34:28;;;;;;;;;;;4.00;99.90;;;;;;5007822;28;21187;-71
2022/01/19 09:36:55;;;;;;;;;;;4.00;99.90;;;;;;5011449;28;20169;-71
2022/01/19 09:39:24;;;;;;;;;;;4.00;99.90;;;;;;5007554;28;20073;-71
2022/01/19 09:41:52;;;;;;;;;;;4.10;99.90;;;;;;5008101;28;21069;-71
2022/01/19 09:44:20;;;;;;;;;;;4.10;99.90;;;;;;5010220;28;20084;-70
2022/01/19 09:46:47;;;;;;;;;;;4.10;99.90;;;;;;5015380;28;20106;-71
2022/01/19 09:49:15;;;;;;;;;;;4.10;99.90;;;;;;5007420;28;20066;-73
2022/01/19 09:51:44;;;;;;;;;;;4.10;99.90;;;;;;4999791;28;20127;-72
2022/01/19 09:54:14;;;;;;;;;;;4.10;99.90;;;;;;5007369;28;21193;-71
2022/01/19 09:56:43;;;;;;;;;;;4.10;99.90;;;;;;5003385;28;20086;-72
2022/01/19 09:59:13;;;;;;;;;;;4.10;99.90;;;;;;5007027;28;21179;-70
2022/01/19 10:01:49;;;;;;;;;;;4.10;99.90;;;;;;5009684;28;20051;-71
2022/01/19 10:04:17;;;;;;;;;;;4.10;99.90;;;;;;5006813;28;20217;-70
2022/01/19 10:06:44;;;;;;;;;;;4.10;99.90;;;;;;5007806;28;20153;-70
2022/01/19 10:09:11;;;;;;;;;;;4.20;99.90;;;;;;5006619;28;21191;-70
2022/01/19 10:17:10;;;;;;;;;;;4.30;99.90;;;;;;5041298;28;20088;-70
2022/01/19 10:19:39;;;;;;;;;;;4.30;99.90;;;;;;5006816;28;20068;-70
2022/01/19 10:22:07;;;;;;;;;;;4.30;99.90;;;;;;5006625;28;20076;-71
2022/01/19 10:24:48;;;;;;;;;;;4.30;99.90;;;;;;5024143;28;20074;-71
2022/01/19 10:27:19;;;;;;;;;;;4.40;99.90;;;;;;5026963;28;20066;-71
2022/01/19 10:29:48;;;;;;;;;;;4.40;99.90;;;;;;5025746;28;21152;-70
2022/01/19 10:32:16;;;;;;;;;;;4.40;99.90;;;;;;5025539;28;20051;-70
2022/01/19 10:34:43;;;;;;;;;;;4.40;99.90;;;;;;5026981;28;20051;-70
2022/01/19 10:37:10;;;;;;;;;;;4.40;99.90;;;;;;5026820;28;20055;-70
2022/01/19 10:39:41;;;;;;;;;;;4.40;99.90;;;;;;5025652;28;20152;-71
2022/01/19 10:42:09;;;;;;;;;;;4.50;99.90;;;;;;5025552;28;20059;-71
2022/01/19 10:44:37;;;;;;;;;;;4.50;99.90;;;;;;5027783;28;20056;-70
2022/01/19 10:47:06;;;;;;;;;;;4.50;99.90;;;;;;5026707;28;20283;-70
2022/01/19 10:49:47;;;;;;;;;;;4.60;99.90;;;;;;5026008;28;20058;-70
2022/01/19 10:52:25;;;;;;;;;;;4.60;99.90;;;;;;5012163;28;20060;-70
2022/01/19 10:54:52;;;;;;;;;;;4.60;99.90;;;;;;5006557;28;20067;-71
2022/01/19 10:57:20;;;;;;;;;;;4.70;99.90;;;;;;5019211;28;20083;-70
2022/01/19 10:59:49;;;;;;;;;;;4.70;99.90;;;;;;5024127;28;20074;-71
2022/01/19 11:02:19;;;;;;;;;;;4.60;99.90;;;;;;5025527;28;20216;-72
2022/01/19 11:04:46;;;;;;;;;;;4.60;99.90;;;;;;5025770;28;20051;-71
2022/01/19 11:07:15;;;;;;;;;;;4.60;99.90;;;;;;5026803;28;21043;-70
2022/01/19 11:09:45;;;;;;;;;;;4.60;99.90;;;;;;5026703;28;20151;-71
2022/01/19 11:12:15;;;;;;;;;;;4.60;99.90;;;;;;5008540;28;20060;-70
2022/01/19 11:14:42;;;;;;;;;;;4.60;99.90;;;;;;5006114;28;20074;-69
2022/01/19 11:17:09;;;;;;;;;;;4.60;99.90;;;;;;5005321;28;20178;-71
2022/01/19 11:19:39;;;;;;;;;;;4.60;99.90;;;;;;5003030;28;20092;-71
2022/01/19 11:22:25;;;;;;;;;;;4.70;99.90;;;;;;5014482;28;20077;-71
2022/01/19 11:24:59;;;;;;;;;;;4.70;99.90;;;;;;5002645;28;20077;-72
2022/01/19 11:27:28;;;;;;;;;;;4.60;99.90;;;;;;5005571;28;20161;-71
2022/01/19 11:30:09;;;;;;;;;;;4.60;99.90;;;;;;4992504;28;20074;-70
2022/01/19 11:32:36;;;;;;;;;;;4.60;99.90;;;;;;5005366;28;20178;-72
2022/01/19 11:35:06;;;;;;;;;;;4.60;99.90;;;;;;5009722;28;20083;-71
2022/01/19 11:37:35;;;;;;;;;;;4.60;99.90;;;;;;5005565;28;20072;-71
2022/01/19 11:40:04;;;;;;;;;;;4.60;99.90;;;;;;4998703;28;20114;-72
2022/01/19 11:42:31;;;;;;;;;;;4.60;99.90;;;;;;5015253;28;20075;-71
2022/01/19 11:44:58;;;;;;;;;;;4.50;99.90;;;;;;5006249;28;20075;-72
2022/01/19 11:47:29;;;;;;;;;;;4.50;99.90;;;;;;5006578;28;21110;-70
2022/01/19 11:49:58;;;;;;;;;;;4.60;99.90;;;;;;5007490;28;20067;-71
2022/01/19 11:52:32;;;;;;;;;;;4.60;99.90;;;;;;5008218;28;20050;-71
2022/01/19 11:55:10;;;;;;;;;;;4.60;99.90;;;;;;5006656;28;21235;-71
2022/01/19 11:57:37;;;;;;;;;;;4.60;99.90;;;;;;5018374;28;20149;-71
2022/01/19 12:00:09;;;;;;;;;;;4.60;99.90;;;;;;5026286;28;20081;-71
2022/01/19 12:02:43;;;;;;;;;;;4.50;99.90;;;;;;5026052;28;20057;-72
2022/01/19 12:05:21;;;;;;;;;;;4.50;99.90;;;;;;5027335;28;20154;-71
2022/01/19 12:07:52;;;;;;;;;;;4.50;99.90;;;;;;5025949;28;20076;-72
2022/01/19 12:10:20;;;;;;;;;;;4.50;99.90;;;;;;5024852;28;20059;-71
2022/01/19 12:13:08;;;;;;;;;;;4.50;99.90;;;;;;5006928;28;20130;-71
2022/01/19 12:15:49;;;;;;;;;;;4.50;99.90;;;;;;5005109;28;20080;-71
2022/01/19 12:18:31;;;;;;;;;;;4.40;99.90;;;;;;5006258;28;20057;-72
2022/01/19 12:20:58;;;;;;;;;;;4.40;99.90;;;;;;5004926;28;20079;-72
2022/01/19 12:23:27;;;;;;;;;;;4.40;99.90;;;;;;5006844;28;20058;-71
2022/01/19 12:25:54;;;;;;;;;;;4.40;99.90;;;;;;5007068;28;20059;-71
2022/01/19 12:28:41;;;;;;;;;;;4.40;99.90;;;;;;5006757;28;20067;-71
2022/01/19 12:31:28;;;;;;;;;;;4.40;99.90;;;;;;5010354;28;20103;-74
2022/01/19 12:34:15;;;;;;;;;;;4.60;99.90;;;;;;5023172;28;20185;-71
2022/01/19 12:36:43;;;;;;;;;;;4.60;99.90;;;;;;5022327;28;20074;-71
2022/01/19 12:39:29;;;;;;;;;;;4.50;99.90;;;;;;5008381;28;20068;-71
2022/01/19 12:41:59;;;;;;;;;;;4.40;99.90;;;;;;5026032;28;20074;-71
2022/01/19 12:44:40;;;;;;;;;;;4.40;99.90;;;;;;5008771;28;20293;-71
2022/01/19 12:47:27;;;;;;;;;;;4.40;99.90;;;;;;5009140;28;20448;-71
2022/01/19 12:49:55;;;;;;;;;;;4.40;99.90;;;;;;5008135;28;20051;-71
2022/01/19 12:52:23;;;;;;;;;;;4.50;99.90;;;;;;5008593;28;20068;-73
2022/01/19 12:54:50;;;;;;;;;;;4.50;99.90;;;;;;5009319;28;21037;-72
2022/01/19 12:57:19;;;;;;;;;;;4.50;99.90;;;;;;5009522;28;20066;-71
2022/01/19 12:59:47;;;;;;;;;;;4.50;99.90;;;;;;5007494;28;20051;-71
2022/01/19 13:02:16;;;;;;;;;;;4.50;99.90;;;;;;5009632;28;20129;-71
2022/01/19 13:04:45;;;;;;;;;;;4.50;99.90;;;;;;5009396;28;20230;-71
2022/01/19 13:07:16;;;;;;;;;;;4.40;99.90;;;;;;5009129;28;20067;-72
2022/01/19 13:10:08;;;;;;;;;;;4.50;99.90;;;;;;5008172;28;21106;-72
2022/01/19 13:12:43;;;;;;;;;;;4.50;99.90;;;;;;4989116;28;20052;-72
2022/01/19 13:15:10;;;;;;;;;;;4.50;99.90;;;;;;4989008;28;20066;-71
2022/01/19 13:17:41;;;;;;;;;;;4.40;99.90;;;;;;4989271;28;20051;-71
2022/01/19 13:20:09;;;;;;;;;;;4.40;99.90;;;;;;4988228;28;20141;-70
2022/01/19 13:22:43;;;;;;;;;;;4.40;99.90;;;;;;4988299;28;20060;-70
2022/01/19 13:25:15;;;;;;;;;;;4.40;99.90;;;;;;4989315;28;20052;-72
2022/01/19 13:27:44;;;;;;;;;;;4.40;99.90;;;;;;4989544;28;20083;-72
2022/01/19 13:30:15;;;;;;;;;;;4.30;99.90;;;;;;4988224;28;20060;-71
2022/01/19 13:32:42;;;;;;;;;;;4.30;99.90;;;;;;4988574;28;20274;-71
2022/01/19 13:35:10;;;;;;;;;;;4.30;99.90;;;;;;4988467;28;20074;-71
2022/01/19 13:37:38;;;;;;;;;;;4.30;99.90;;;;;;4987936;28;21040;-70
2022/01/19 13:40:07;;;;;;;;;;;4.20;99.90;;;;;;4987583;28;20141;-72
2022/01/19 13:42:37;;;;;;;;;;;4.20;99.90;;;;;;4988018;28;20060;-71
2022/01/19 13:45:10;;;;;;;;;;;4.20;99.90;;;;;;4988323;28;20170;-70
2022/01/19 13:48:19;;;;;;;;;;;4.20;99.90;;;;;;4989322;28;20052;-72
2022/01/19 13:50:47;;;;;;;;;;;4.20;99.90;;;;;;4956351;28;20181;-71
2022/01/19 13:53:15;;;;;;;;;;;4.10;99.90;;;;;;4987273;28;20060;-72
2022/01/19 13:55:42;;;;;;;;;;;4.10;99.90;;;;;;4989005;28;20099;-72
2022/01/19 13:58:13;;;;;;;;;;;4.10;99.90;;;;;;5002633;28;21121;-71
2022/01/19 14:00:51;;;;;;;;;;;4.00;99.90;;;;;;5029787;28;20059;-70
2022/01/19 14:03:18;;;;;;;;;;;4.00;99.90;;;;;;5041126;28;20051;-70
2022/01/19 14:05:46;;;;;;;;;;;4.00;99.90;;;;;;5038656;28;20050;-72
2022/01/19 14:08:13;;;;;;;;;;;4.00;99.90;;;;;;5038390;28;20084;-71
2022/01/19 14:10:41;;;;;;;;;;;3.90;99.90;;;;;;5022868;28;20157;-71
2022/01/19 14:13:22;;;;;;;;;;;3.90;99.90;;;;;;5001251;28;20059;-71
2022/01/19 14:15:51;;;;;;;;;;;3.90;99.90;;;;;;5020154;28;21183;-70
2022/01/19 14:18:18;;;;;;;;;;;3.90;99.90;;;;;;5017334;28;20177;-70
2022/01/19 14:20:45;;;;;;;;;;;3.90;99.90;;;;;;5015968;28;20068;-74
2022/01/19 14:23:15;;;;;;;;;;;3.90;99.90;;;;;;5006847;28;20067;-70
2022/01/19 14:25:43;;;;;;;;;;;3.90;99.90;;;;;;5009305;28;20153;-71
2022/01/19 14:28:14;;;;;;;;;;;3.90;99.90;;;;;;5007408;28;20140;-70
2022/01/19 14:30:42;;;;;;;;;;;3.90;99.90;;;;;;5007049;28;20088;-70
2022/01/19 14:33:13;;;;;;;;;;;3.90;99.90;;;;;;5008735;28;20064;-70
2022/01/19 14:35:46;;;;;;;;;;;3.90;99.90;;;;;;5006747;28;20078;-71
2022/01/19 14:38:15;;;;;;;;;;;3.90;99.90;;;;;;5007624;28;20059;-71
2022/01/19 14:40:56;;;;;;;;;;;3.90;99.90;;;;;;5006342;28;20073;-71
2022/01/19 14:43:25;;;;;;;;;;;3.90;99.90;;;;;;5007296;28;20051;-71
2022/01/19 14:45:56;;;;;;;;;;;3.90;99.90;;;;;;5007247;28;20275;-71
2022/01/19 14:48:25;;;;;;;;;;;3.90;99.90;;;;;;5007428;28;20051;-71
2022/01/19 14:50:52;;;;;;;;;;;3.90;99.90;;;;;;5006228;28;21035;-70
2022/01/19 14:53:20;;;;;;;;;;;3.90;99.90;;;;;;5008256;28;20094;-70
2022/01/19 14:55:48;;;;;;;;;;;3.90;99.90;;;;;;5008683;28;20215;-71
2022/01/19 14:58:17;;;;;;;;;;;4.00;99.90;;;;;;5008209;28;21602;-70
2022/01/19 15:00:44;;;;;;;;;;;4.00;99.90;;;;;;5007123;28;21132;-71
2022/01/19 15:03:11;;;;;;;;;;;3.90;99.90;;;;;;5009109;28;20068;-71
2022/01/19 15:05:42;;;;;;;;;;;3.90;99.90;;;;;;5008820;28;20068;-71
2022/01/19 15:08:10;;;;;;;;;;;3.90;99.90;;;;;;5008063;28;20060;-71
2022/01/19 15:10:37;;;;;;;;;;;3.90;99.90;;;;;;5006878;28;20060;-72
2022/01/19 15:13:07;;;;;;;;;;;3.90;99.90;;;;;;5007987;28;20113;-70
2022/01/19 15:15:35;;;;;;;;;;;3.90;99.90;;;;;;5017496;28;20108;-70
2022/01/19 15:18:03;;;;;;;;;;;3.90;99.90;;;;;;5028774;28;20233;-71
2022/01/19 15:20:32;;;;;;;;;;;3.80;99.90;;;;;;5028274;28;20182;-72
2022/01/19 15:23:01;;;;;;;;;;;3.80;99.90;;;;;;5028260;28;20149;-71
2022/01/19 15:25:29;;;;;;;;;;;3.80;99.90;;;;;;5028878;28;20065;-71
2022/01/19 15:27:58;;;;;;;;;;;3.80;99.90;;;;;;5027724;28;20090;-75
2022/01/19 15:30:26;;;;;;;;;;;3.80;99.90;;;;;;5027335;28;20068;-71
2022/01/19 15:32:53;;;;;;;;;;;3.80;99.90;;;;;;5028899;28;20193;-71
2022/01/19 15:35:20;;;;;;;;;;;3.80;99.90;;;;;;5029183;28;20075;-71
2022/01/19 15:37:48;;;;;;;;;;;3.80;99.90;;;;;;5028636;28;20178;-71
2022/01/19 15:40:17;;;;;;;;;;;3.80;99.90;;;;;;5028375;28;20078;-71
2022/01/19 15:42:46;;;;;;;;;;;3.80;99.90;;;;;;5027968;28;20096;-73
2022/01/19 15:45:13;;;;;;;;;;;3.80;99.90;;;;;;5028741;28;20079;-71
2022/01/19 15:47:40;;;;;;;;;;;3.80;99.90;;;;;;5028812;28;20148;-71
2022/01/19 15:50:09;;;;;;;;;;;3.80;99.90;;;;;;5027216;28;21230;-70
2022/01/19 15:52:37;;;;;;;;;;;3.80;99.90;;;;;;5027424;28;20148;-72
2022/01/19 15:55:05;;;;;;;;;;;3.80;99.90;;;;;;5028103;28;20068;-72
2022/01/19 15:57:33;;;;;;;;;;;3.80;99.90;;;;;;5028003;28;20140;-71
2022/01/19 16:00:01;;;;;;;;;;;3.80;99.90;;;;;;5027369;28;21139;-72